Steamboat Springs, CO (80487)

8:48 PM MST on December 20, 2014 (GMT -0700)
Conifer Circle | Change Station
CLOSE
Current Station
Personal Weather Station
Location: Steamboat Springs, CO
Elevation: 6841 ft
Nearby Weather Stations
Active Advisory: Winter Storm Warning

Elev 6841 ft 40.49 °N, 106.82 °W | Updated 18 minutes ago

Overcast
Overcast
26.6 °F
Feels Like 27 °F
N
0.0
Wind Variable Wind from WSW
Gusts 0.0 mph

Today
High -- | Low -- °F
--% Chance of Precip.
Yesterday
High -- | Low -- °F
Precip. -- in
7:26 AM 4:43 PM
Waning Crescent, 1% visible
Pressure 30.03 in
Visibility 5.0 miles
Clouds Scattered Clouds 1500 ft
Overcast 2100 ft
Windchill 27 °F
Dew Point 23 °F
Humidity 86%
Rainfall 0.00 in
Snow Depth Not available.
UV 0 out of 12
Pollen .10 out of 12
Air Quality Not available.
Flu Activity Not available.
METAR KSBS 210335Z AUTO 00000KT 5SM SCT015 OVC021 M04/M04 A3003 RMK AO1 T10391045

More Conditions Fewer Conditions

Pressure 30.03 in
Visibility 5.0 miles
Clouds Scattered Clouds 1500 ft
Overcast 2100 ft
Windchill 27 °F
Dew Point 23 °F
Humidity 86%
Rainfall 0.00 in
Snow Depth Not available.
UV 0 out of 12
Pollen .10 out of 12
Air Quality Not available.
Flu Activity Not available.
METAR KSBS 210335Z AUTO 00000KT 5SM SCT015 OVC021 M04/M04 A3003 RMK AO1 T10391045

More Conditions Fewer Conditions

10-Day Weather Forecast

Almanac

Astronomy

Dec. 20, 2014 Rise Set
Actual Time
Civil Twilight
Nautical Twilight
Astronomical Twilight
Moon
Length of Visible Light
Length of Day
Tomorrow will be .
, % of the Moon is Illuminated

Today's Extremes

State Highs State Lows

Community

WunderPhotos

Upload Photos

1,779,354 photos uploaded!

WunderBlogs® & News

Nearby

Air Quality

  Air Quality AQ Index Pollutant
Not available.

Snow Depth

Station Depth Elevation

Earthquake Activity

City Distance Mag. Time & Date
Minimum magnitude displayed is 2.5.

Coastal Water Temperatures

Place Temperature

Nearby Weather Stations